Time;durP1;ratioP1;P1;durP2;ratioP2;P2;SDS_P1;SDS_P2;PMS_P1;PMS_P2;Temp;Humidity;BMP_temperature;BMP_pressure;BME280_temperature;BME280_humidity;BME280_pressure;Samples;Min_cycle;Max_cycle;Signal;HPM_P1;HPM_P2
2022/08/28 00:01:00;;;;;;;2.92;2.40;;;23.00;97.60;;;;;;4914569;29;20043;-73
2022/08/28 00:03:28;;;;;;;2.25;2.03;;;23.40;98.50;;;;;;4915761;29;20487;-74
2022/08/28 00:05:55;;;;;;;1.60;1.50;;;23.70;97.20;;;;;;4915386;29;20044;-74
2022/08/28 00:08:22;;;;;;;2.83;2.08;;;23.80;97.00;;;;;;4917067;29;20023;-74
2022/08/28 00:10:50;;;;;;;2.75;2.40;;;23.30;96.90;;;;;;4915715;29;20051;-74
2022/08/28 00:13:20;;;;;;;2.17;1.70;;;23.60;95.80;;;;;;4917788;29;20190;-73
2022/08/28 00:15:50;;;;;;;2.75;2.03;;;23.30;97.00;;;;;;4906883;29;20111;-73
2022/08/28 00:18:18;;;;;;;2.88;2.30;;;23.60;96.80;;;;;;4917149;29;20913;-73
2022/08/28 00:20:46;;;;;;;3.05;1.83;;;24.20;95.40;;;;;;4915039;29;20031;-74
2022/08/28 00:23:14;;;;;;;2.17;1.58;;;24.10;96.10;;;;;;4917688;29;20028;-73
2022/08/28 00:25:42;;;;;;;2.95;1.75;;;24.40;94.70;;;;;;4915472;29;20039;-73
2022/08/28 00:28:11;;;;;;;2.83;1.70;;;24.40;95.50;;;;;;4916951;29;20020;-73
2022/08/28 00:30:45;;;;;;;4.28;1.88;;;24.60;96.00;;;;;;4914968;29;20028;-73
2022/08/28 00:33:23;;;;;;;3.65;2.40;;;24.50;94.30;;;;;;4916476;29;20024;-73
2022/08/28 00:35:53;;;;;;;2.83;2.28;;;24.60;93.80;;;;;;4904730;29;20040;-75
2022/08/28 00:38:23;;;;;;;3.53;3.05;;;24.60;95.00;;;;;;4916565;29;20373;-74
2022/08/28 00:40:52;;;;;;;4.03;2.33;;;24.50;95.30;;;;;;4914298;29;20421;-74
2022/08/28 00:43:43;;;;;;;3.58;2.75;;;24.70;95.40;;;;;;4916438;29;20028;-73
2022/08/28 00:46:20;;;;;;;1.73;1.55;;;24.90;95.00;;;;;;4914439;29;20036;-73
2022/08/28 00:48:48;;;;;;;2.70;1.77;;;25.00;94.80;;;;;;4914679;29;20064;-74
2022/08/28 00:54:05;;;;;;;3.40;2.20;;;25.50;93.90;;;;;;4916509;29;20044;-74
2022/08/28 00:56:32;;;;;;;2.92;2.20;;;25.70;93.20;;;;;;4914115;29;20549;-73
2022/08/28 00:59:06;;;;;;;2.95;2.53;;;25.60;93.40;;;;;;4915859;29;20114;-73
2022/08/28 01:01:34;;;;;;;4.05;2.15;;;25.40;93.00;;;;;;4914357;29;20024;-74
2022/08/28 01:04:05;;;;;;;4.30;2.20;;;25.50;93.20;;;;;;4914614;29;20479;-74
2022/08/28 01:06:33;;;;;;;2.80;1.60;;;25.50;92.20;;;;;;4914028;29;20123;-74
2022/08/28 01:09:01;;;;;;;2.45;1.60;;;25.30;91.80;;;;;;4914847;29;20055;-73
2022/08/28 01:11:29;;;;;;;3.67;2.05;;;24.90;92.70;;;;;;4902011;29;20045;-73
2022/08/28 01:14:01;;;;;;;2.70;1.83;;;25.30;92.00;;;;;;4896560;29;20488;-74
2022/08/28 01:16:29;;;;;;;2.97;1.70;;;24.90;92.70;;;;;;4902949;29;20480;-73
2022/08/28 01:18:59;;;;;;;6.57;1.60;;;24.90;92.90;;;;;;4896768;29;20099;-73
2022/08/28 01:21:44;;;;;;;1.83;1.20;;;24.80;92.60;;;;;;4908013;29;20035;-73
2022/08/28 01:24:16;;;;;;;2.25;1.38;;;24.50;92.80;;;;;;4915450;29;20036;-72
2022/08/28 01:26:46;;;;;;;1.80;1.10;;;24.30;93.60;;;;;;4910279;29;20040;-73
2022/08/28 01:29:13;;;;;;;6.68;1.63;;;24.00;93.80;;;;;;4915871;29;20118;-74
2022/08/28 01:31:41;;;;;;;1.45;1.10;;;24.20;93.90;;;;;;4913449;29;20064;-74
2022/08/28 01:34:11;;;;;;;1.10;0.85;;;24.40;93.70;;;;;;4896631;29;20135;-73
2022/08/28 01:36:39;;;;;;;0.90;0.70;;;24.50;93.50;;;;;;4893445;29;20040;-74
2022/08/28 01:39:19;;;;;;;2.08;0.98;;;24.70;93.30;;;;;;4915330;29;20032;-74
2022/08/28 01:41:50;;;;;;;1.33;1.08;;;24.80;92.80;;;;;;4904286;29;20619;-74
2022/08/28 01:44:23;;;;;;;1.35;0.88;;;24.70;93.30;;;;;;4915089;29;20054;-73
2022/08/28 01:46:53;;;;;;;1.73;0.93;;;25.20;92.70;;;;;;4913806;29;20487;-73
2022/08/28 01:49:21;;;;;;;3.45;0.80;;;25.20;93.00;;;;;;4915452;29;20032;-73
2022/08/28 01:51:48;;;;;;;0.93;0.55;;;24.70;93.10;;;;;;4914049;29;20037;-73
2022/08/28 01:54:16;;;;;;;1.48;0.90;;;24.60;93.40;;;;;;4915658;29;20060;-74
2022/08/28 01:56:44;;;;;;;1.15;0.73;;;24.20;93.30;;;;;;4913634;29;20036;-74
2022/08/28 01:59:13;;;;;;;1.10;0.93;;;24.20;93.70;;;;;;4915424;29;20032;-76
2022/08/28 02:01:42;;;;;;;1.52;0.80;;;24.40;93.70;;;;;;4907413;29;20032;-74
2022/08/28 02:04:10;;;;;;;2.60;1.25;;;24.50;92.50;;;;;;4914952;29;20024;-73
2022/08/28 02:06:37;;;;;;;1.48;1.08;;;24.50;93.60;;;;;;4913304;29;20529;-75
2022/08/28 02:09:06;;;;;;;2.33;1.05;;;24.40;93.30;;;;;;4913503;29;20048;-75
2022/08/28 02:11:35;;;;;;;2.33;0.70;;;24.70;93.80;;;;;;4912815;29;20051;-75
2022/08/28 02:14:03;;;;;;;1.80;0.98;;;25.00;93.30;;;;;;4914623;29;20024;-76
2022/08/28 02:16:30;;;;;;;1.27;0.90;;;25.00;92.70;;;;;;4915615;29;20036;-75
2022/08/28 02:18:59;;;;;;;2.45;0.85;;;25.00;92.70;;;;;;4914574;29;20103;-74
2022/08/28 02:21:26;;;;;;;1.50;0.90;;;24.80;92.40;;;;;;4900779;29;20033;-75
2022/08/28 02:23:54;;;;;;;2.95;1.77;;;24.90;92.20;;;;;;4895681;29;20033;-75
2022/08/28 02:26:22;;;;;;;3.00;1.65;;;24.90;92.20;;;;;;4906782;29;20028;-75
2022/08/28 02:28:49;;;;;;;1.70;1.45;;;24.70;92.80;;;;;;4913618;29;20110;-74
2022/08/28 02:31:17;;;;;;;2.22;1.33;;;24.90;92.80;;;;;;4912281;29;20028;-74
2022/08/28 02:33:46;;;;;;;5.40;2.03;;;24.70;92.60;;;;;;4915067;29;20072;-76
2022/08/28 02:36:14;;;;;;;3.63;2.08;;;24.80;92.30;;;;;;4912045;29;20123;-77
2022/08/28 02:38:44;;;;;;;3.55;1.48;;;24.60;92.70;;;;;;4914342;29;20032;-75
2022/08/28 02:41:12;;;;;;;2.17;1.55;;;24.60;93.70;;;;;;4912702;29;20020;-76
2022/08/28 02:43:40;;;;;;;3.92;1.60;;;24.50;92.60;;;;;;4914291;29;20447;-74
2022/08/28 02:46:08;;;;;;;3.22;1.75;;;24.40;92.20;;;;;;4911618;29;20031;-75
2022/08/28 02:48:38;;;;;;;4.10;1.48;;;24.60;93.00;;;;;;4914632;29;20039;-74
2022/08/28 02:51:09;;;;;;;2.85;1.55;;;24.70;93.10;;;;;;4912548;29;20040;-76
2022/08/28 02:53:38;;;;;;;2.65;1.25;;;24.70;92.10;;;;;;4910855;29;20544;-76
2022/08/28 02:56:06;;;;;;;2.28;1.40;;;24.80;92.50;;;;;;4903877;29;20091;-76
2022/08/28 02:58:34;;;;;;;2.72;1.73;;;24.70;93.10;;;;;;4913990;29;20063;-77
2022/08/28 03:01:04;;;;;;;3.20;2.28;;;24.70;92.90;;;;;;4911883;29;20047;-75
2022/08/28 03:03:31;;;;;;;3.10;2.03;;;24.40;93.10;;;;;;4914387;29;20043;-75
2022/08/28 03:06:00;;;;;;;3.50;1.65;;;23.60;93.60;;;;;;4912236;29;20031;-76
2022/08/28 03:08:28;;;;;;;3.47;2.03;;;22.90;94.30;;;;;;4914202;29;20048;-75
2022/08/28 03:10:56;;;;;;;3.67;2.08;;;23.30;94.40;;;;;;4912141;29;20040;-76
2022/08/28 03:13:23;;;;;;;3.17;1.40;;;24.00;92.90;;;;;;4913835;29;20465;-75
2022/08/28 03:15:52;;;;;;;1.52;1.05;;;24.30;92.80;;;;;;4907922;29;20494;-75
2022/08/28 03:18:19;;;;;;;0.98;0.60;;;24.40;92.10;;;;;;4913678;29;20036;-74
2022/08/28 03:20:47;;;;;;;1.52;1.23;;;24.30;92.00;;;;;;4907965;29;20040;-74
2022/08/28 03:23:26;;;;;;;2.10;1.13;;;24.40;91.70;;;;;;4903503;29;20175;-76
2022/08/28 03:26:01;;;;;;;1.05;0.63;;;24.30;91.70;;;;;;4901743;29;20028;-76
2022/08/28 03:28:37;;;;;;;3.22;1.33;;;24.00;91.70;;;;;;4911012;29;20478;-76
2022/08/28 03:31:06;;;;;;;2.60;1.80;;;23.90;92.30;;;;;;4911619;29;20048;-76
2022/08/28 03:33:34;;;;;;;3.92;1.52;;;23.40;92.90;;;;;;4913627;29;20047;-75
2022/08/28 03:36:02;;;;;;;3.97;1.27;;;23.00;93.20;;;;;;4911736;29;20040;-74
2022/08/28 03:38:30;;;;;;;1.83;1.20;;;22.80;93.80;;;;;;4913584;29;20395;-75
2022/08/28 03:40:57;;;;;;;2.78;1.27;;;22.60;93.90;;;;;;4911876;29;20101;-75
2022/08/28 03:43:26;;;;;;;3.97;1.30;;;22.40;94.50;;;;;;4913409;29;20094;-76
2022/08/28 03:46:02;;;;;;;1.98;1.00;;;22.80;94.70;;;;;;4911343;29;20173;-76
2022/08/28 03:48:35;;;;;;;1.25;1.10;;;23.30;93.50;;;;;;4913195;29;20487;-76
2022/08/28 03:51:06;;;;;;;1.23;0.90;;;23.70;92.80;;;;;;4911505;29;20177;-77
2022/08/28 03:53:33;;;;;;;2.72;1.02;;;23.70;92.60;;;;;;4912558;29;20443;-77
2022/08/28 03:56:01;;;;;;;1.00;0.52;;;24.00;92.00;;;;;;4908075;29;20036;-77
2022/08/28 03:58:28;;;;;;;1.92;0.90;;;24.30;92.50;;;;;;4911156;29;20065;-77
2022/08/28 04:00:56;;;;;;;0.98;0.80;;;24.70;92.60;;;;;;4913164;29;20115;-77
2022/08/28 04:03:23;;;;;;;2.47;1.13;;;25.00;92.10;;;;;;4913345;29;20450;-75
2022/08/28 04:05:51;;;;;;;1.73;0.90;;;25.00;91.50;;;;;;4911641;29;20483;-77
2022/08/28 04:08:20;;;;;;;1.75;1.20;;;24.70;91.70;;;;;;4913777;29;20452;-75
2022/08/28 04:10:48;;;;;;;1.40;0.80;;;24.40;92.20;;;;;;4911588;29;20050;-74
2022/08/28 04:13:18;;;;;;;1.63;0.98;;;24.40;92.20;;;;;;4914064;29;20124;-75
2022/08/28 04:15:46;;;;;;;2.65;0.95;;;24.30;92.20;;;;;;4909363;29;20104;-75
2022/08/28 04:18:14;;;;;;;2.13;0.82;;;23.90;92.30;;;;;;4894593;29;20029;-75
2022/08/28 04:20:41;;;;;;;1.60;1.15;;;23.80;92.90;;;;;;4900681;29;20116;-77
2022/08/28 04:23:09;;;;;;;1.67;1.00;;;23.40;93.00;;;;;;4913673;29;20028;-76
2022/08/28 04:25:39;;;;;;;3.42;1.73;;;23.00;93.80;;;;;;4912462;29;20071;-75
2022/08/28 04:28:07;;;;;;;1.65;0.93;;;22.60;93.80;;;;;;4913683;29;20024;-74
2022/08/28 04:30:35;;;;;;;2.20;1.08;;;22.40;94.40;;;;;;4906493;29;20111;-75
2022/08/28 04:33:02;;;;;;;1.40;1.08;;;22.10;95.10;;;;;;4910513;29;20040;-76
2022/08/28 04:35:30;;;;;;;1.90;1.10;;;21.90;95.10;;;;;;4911906;29;20028;-76
2022/08/28 04:37:57;;;;;;;2.38;1.17;;;21.90;95.30;;;;;;4913692;29;20058;-75
2022/08/28 04:40:24;;;;;;;1.83;1.23;;;21.80;95.40;;;;;;4914923;29;20035;-74
2022/08/28 04:42:52;;;;;;;1.60;1.00;;;21.80;95.40;;;;;;4916741;29;20032;-76
2022/08/28 04:45:20;;;;;;;4.00;1.25;;;21.80;95.00;;;;;;4915320;29;20024;-77
2022/08/28 04:47:47;;;;;;;1.90;1.23;;;21.80;95.30;;;;;;4916907;29;20040;-75
2022/08/28 04:50:15;;;;;;;2.60;1.25;;;21.70;95.70;;;;;;4914740;29;20028;-76
2022/08/28 04:52:42;;;;;;;2.20;1.25;;;21.70;95.70;;;;;;4916669;29;20044;-76
2022/08/28 04:55:10;;;;;;;1.58;0.90;;;21.70;95.90;;;;;;4915061;29;20070;-77
2022/08/28 04:57:37;;;;;;;2.88;1.35;;;21.50;96.00;;;;;;4916982;29;20417;-75
2022/08/28 05:00:06;;;;;;;3.00;1.05;;;21.50;96.30;;;;;;4914509;29;20895;-77
2022/08/28 05:02:34;;;;;;;1.80;1.05;;;21.40;96.40;;;;;;4916696;29;20036;-74
2022/08/28 05:05:02;;;;;;;2.80;1.23;;;21.40;95.10;;;;;;4914452;29;20030;-76
2022/08/28 05:07:29;;;;;;;4.65;1.42;;;21.30;95.10;;;;;;4916759;29;20389;-75
2022/08/28 05:09:56;;;;;;;2.50;1.10;;;21.30;95.30;;;;;;4914333;29;20532;-76
2022/08/28 05:12:24;;;;;;;3.00;0.98;;;21.20;95.40;;;;;;4916249;29;20044;-75
2022/08/28 05:14:51;;;;;;;4.00;1.25;;;21.20;94.90;;;;;;4915166;29;20032;-75
2022/08/28 05:17:19;;;;;;;4.45;1.30;;;21.10;95.10;;;;;;4912308;29;20090;-75
2022/08/28 05:19:47;;;;;;;2.17;1.05;;;21.10;95.30;;;;;;4915517;29;20032;-76
2022/08/28 05:22:14;;;;;;;2.67;1.27;;;21.10;95.30;;;;;;4899417;29;20032;-76
2022/08/28 05:24:41;;;;;;;4.40;1.23;;;21.10;95.10;;;;;;4897509;29;20024;-76
2022/08/28 05:27:09;;;;;;;3.03;1.13;;;21.10;95.60;;;;;;4899352;29;20490;-77
2022/08/28 05:29:36;;;;;;;4.70;1.15;;;21.00;96.00;;;;;;4896763;29;20486;-76
2022/08/28 05:32:04;;;;;;;3.13;1.10;;;21.00;95.50;;;;;;4913146;29;20036;-75
2022/08/28 05:34:31;;;;;;;2.17;0.90;;;20.90;95.60;;;;;;4916308;29;20029;-76
2022/08/28 05:36:59;;;;;;;4.38;1.15;;;20.90;95.60;;;;;;4913720;29;20486;-79
2022/08/28 05:39:26;;;;;;;1.85;0.70;;;20.90;95.60;;;;;;4916339;29;20520;-77
2022/08/28 05:41:53;;;;;;;1.70;1.08;;;20.80;95.50;;;;;;4913716;29;20134;-78
2022/08/28 05:44:21;;;;;;;2.22;0.90;;;20.90;96.10;;;;;;4915480;29;20043;-75
2022/08/28 05:46:48;;;;;;;1.60;0.95;;;20.80;96.00;;;;;;4913923;29;20054;-75
2022/08/28 05:49:18;;;;;;;1.25;1.00;;;20.80;95.70;;;;;;4915225;29;20108;-77
2022/08/28 05:51:46;;;;;;;2.05;0.88;;;20.80;95.90;;;;;;4913975;29;20415;-77
2022/08/28 05:54:15;;;;;;;1.95;0.80;;;20.80;96.10;;;;;;4916013;29;20034;-75
2022/08/28 05:56:44;;;;;;;2.35;0.93;;;20.80;96.00;;;;;;4914813;29;20085;-76
2022/08/28 05:59:12;;;;;;;1.05;0.85;;;20.70;96.10;;;;;;4915510;29;20415;-77
2022/08/28 06:01:45;;;;;;;1.63;0.85;;;20.70;96.20;;;;;;4913855;29;20395;-75
2022/08/28 06:04:22;;;;;;;1.92;0.73;;;20.70;96.00;;;;;;4915320;29;20028;-76
2022/08/28 06:06:50;;;;;;;1.35;0.80;;;20.70;96.20;;;;;;4914135;29;20059;-76
2022/08/28 06:09:28;;;;;;;3.40;0.95;;;20.60;96.60;;;;;;4915382;29;20078;-76
2022/08/28 06:11:57;;;;;;;1.85;0.82;;;20.60;96.40;;;;;;4913473;29;20048;-77
2022/08/28 06:14:25;;;;;;;2.30;1.20;;;20.70;97.20;;;;;;4915629;29;20031;-77
2022/08/28 06:16:54;;;;;;;1.98;0.93;;;20.70;97.80;;;;;;4910081;29;20083;-77
2022/08/28 06:19:24;;;;;;;3.13;1.20;;;20.80;98.20;;;;;;4915337;29;20760;-76
2022/08/28 06:21:56;;;;;;;2.00;1.42;;;20.80;98.40;;;;;;4913770;29;20142;-76
2022/08/28 06:24:24;;;;;;;2.03;0.80;;;20.70;98.00;;;;;;4915180;29;20092;-77
2022/08/28 06:26:51;;;;;;;2.05;0.88;;;20.60;97.90;;;;;;4913229;29;20513;-77
2022/08/28 06:29:21;;;;;;;2.45;0.70;;;20.60;98.20;;;;;;4914962;29;20392;-76
2022/08/28 06:31:53;;;;;;;2.83;1.00;;;20.50;98.60;;;;;;4913558;29;20051;-76
2022/08/28 06:34:20;;;;;;;1.95;1.10;;;20.40;98.60;;;;;;4914875;29;20024;-74
2022/08/28 06:36:48;;;;;;;1.77;0.70;;;20.30;98.60;;;;;;4912776;29;20182;-78
2022/08/28 06:39:15;;;;;;;3.55;1.52;;;20.20;98.90;;;;;;4915047;29;20028;-74
2022/08/28 06:41:43;;;;;;;2.85;1.52;;;20.20;99.20;;;;;;4912137;29;20047;-76
2022/08/28 06:44:19;;;;;;;2.45;1.70;;;20.00;99.20;;;;;;4914792;29;20063;-78
2022/08/28 06:46:52;;;;;;;2.58;1.90;;;20.00;99.40;;;;;;4913021;29;20115;-76
2022/08/28 06:49:19;;;;;;;3.28;2.05;;;19.90;99.90;;;;;;4931187;29;20031;-77
2022/08/28 06:51:47;;;;;;;2.40;1.50;;;19.80;99.90;;;;;;4915728;29;20322;-78
2022/08/28 06:54:16;;;;;;;3.30;1.85;;;19.80;99.80;;;;;;4913379;29;20040;-75
2022/08/28 06:56:45;;;;;;;2.72;1.80;;;19.70;99.70;;;;;;4909564;29;20063;-75
2022/08/28 06:59:12;;;;;;;4.47;2.28;;;19.70;99.80;;;;;;4914116;29;20084;-76
2022/08/28 07:01:39;;;;;;;3.05;1.60;;;19.60;99.90;;;;;;4911513;29;20044;-76
2022/08/28 07:04:10;;;;;;;3.53;1.80;;;19.60;99.90;;;;;;4914110;29;20103;-75
2022/08/28 07:06:40;;;;;;;3.33;2.17;;;19.50;99.90;;;;;;4908247;29;20116;-76
2022/08/28 07:09:12;;;;;;;2.78;1.95;;;19.50;99.90;;;;;;4913985;29;20459;-73
2022/08/28 07:11:40;;;;;;;2.72;2.05;;;19.40;99.90;;;;;;4912392;29;20052;-75
2022/08/28 07:14:08;;;;;;;3.08;1.80;;;19.40;99.90;;;;;;4913875;29;20047;-74
2022/08/28 07:16:37;;;;;;;4.03;2.00;;;19.30;99.90;;;;;;4912257;29;20036;-74
2022/08/28 07:19:07;;;;;;;3.38;2.20;;;19.20;99.90;;;;;;4913050;29;20641;-74
2022/08/28 07:21:36;;;;;;;3.78;2.22;;;19.20;99.90;;;;;;4909401;29;20854;-73
2022/08/28 07:24:05;;;;;;;3.65;2.85;;;19.10;99.90;;;;;;4913773;29;20043;-74
2022/08/28 07:26:32;;;;;;;3.70;1.67;;;19.10;99.90;;;;;;4912551;29;20028;-75
2022/08/28 07:29:02;;;;;;;4.75;2.13;;;19.00;99.90;;;;;;4913813;29;20024;-74
2022/08/28 07:31:29;;;;;;;3.75;2.33;;;19.00;99.90;;;;;;4911852;29;20036;-74
2022/08/28 07:33:56;;;;;;;5.53;2.30;;;19.00;99.90;;;;;;4913584;29;20034;-73
2022/08/28 07:36:26;;;;;;;3.55;2.60;;;18.90;99.90;;;;;;4912155;29;20029;-74
2022/08/28 07:38:56;;;;;;;5.25;2.13;;;18.80;99.90;;;;;;4913837;29;20503;-74
2022/08/28 07:41:26;;;;;;;3.22;2.35;;;18.70;99.90;;;;;;4912279;29;20043;-73
2022/08/28 07:46:40;;;;;;;4.18;2.75;;;18.50;99.90;;;;;;4911110;29;20043;-74
2022/08/28 07:49:09;;;;;;;4.13;2.88;;;18.30;99.90;;;;;;4913836;29;20115;-74
2022/08/28 07:51:37;;;;;;;4.03;2.92;;;18.30;99.90;;;;;;4912220;29;20039;-74
2022/08/28 07:54:05;;;;;;;6.00;3.00;;;18.20;99.90;;;;;;4913497;29;20036;-74
2022/08/28 07:56:32;;;;;;;4.13;2.90;;;18.20;99.90;;;;;;4912786;29;20109;-75
2022/08/28 07:59:02;;;;;;;7.15;5.18;;;18.10;99.90;;;;;;4913670;29;20555;-74
2022/08/28 08:01:30;;;;;;;6.18;4.10;;;18.20;99.90;;;;;;4912466;29;20040;-74
2022/08/28 08:03:58;;;;;;;4.45;3.15;;;18.10;99.90;;;;;;4912460;29;20020;-74
2022/08/28 08:06:28;;;;;;;5.25;2.72;;;18.10;99.90;;;;;;4912105;29;20036;-74
2022/08/28 08:08:56;;;;;;;4.95;3.17;;;18.10;99.90;;;;;;4913310;29;20143;-73
2022/08/28 08:11:23;;;;;;;4.82;3.25;;;18.10;99.90;;;;;;4912089;29;20051;-73
2022/08/28 08:13:51;;;;;;;2.83;1.52;;;18.00;99.90;;;;;;4917181;29;20107;-74
2022/08/28 08:16:22;;;;;;;4.30;1.67;;;17.90;99.90;;;;;;4912166;29;20044;-74
2022/08/28 08:18:50;;;;;;;1.60;1.00;;;17.90;99.90;;;;;;4917143;29;20024;-74
2022/08/28 08:21:20;;;;;;;2.28;1.20;;;17.80;99.90;;;;;;4915102;29;20059;-75
2022/08/28 08:23:48;;;;;;;5.20;1.50;;;17.70;99.90;;;;;;4917258;29;20043;-73
2022/08/28 08:26:23;;;;;;;2.13;1.92;;;17.60;99.90;;;;;;4915118;29;20096;-73
2022/08/28 08:28:51;;;;;;;5.45;4.80;;;17.60;99.90;;;;;;4917076;29;20104;-73
2022/08/28 08:31:25;;;;;;;6.10;4.47;;;17.50;99.90;;;;;;4915182;29;20119;-74
2022/08/28 08:34:00;;;;;;;5.60;3.40;;;17.40;99.90;;;;;;4916926;29;20423;-74
2022/08/28 08:36:28;;;;;;;2.92;1.95;;;17.30;99.90;;;;;;4903573;29;20080;-73
2022/08/28 08:38:57;;;;;;;3.53;1.60;;;17.20;99.90;;;;;;4898226;29;20035;-74
2022/08/28 08:41:49;;;;;;;3.72;1.20;;;17.10;99.90;;;;;;4909763;29;20030;-75
2022/08/28 08:44:32;;;;;;;2.97;1.50;;;17.00;99.90;;;;;;4916436;29;20111;-75
2022/08/28 08:47:25;;;;;;;3.78;2.53;;;17.00;99.90;;;;;;4915790;29;20119;-74
2022/08/28 08:49:59;;;;;;;5.80;3.38;;;16.90;99.90;;;;;;4915339;29;20031;-73
2022/08/28 08:52:37;;;;;;;5.43;3.70;;;16.80;99.90;;;;;;4897584;29;20044;-73
2022/08/28 08:55:34;;;;;;;3.97;3.58;;;16.70;99.90;;;;;;4898502;29;22421;-76
2022/08/28 08:58:07;;;;;;;7.18;4.88;;;16.60;99.90;;;;;;4916238;29;20043;-75
2022/08/28 09:00:49;;;;;;;5.00;4.53;;;16.50;99.90;;;;;;4914922;29;20249;-75
2022/08/28 09:03:31;;;;;;;5.43;4.25;;;16.40;99.90;;;;;;4917096;29;20028;-74
2022/08/28 09:06:02;;;;;;;3.38;2.70;;;16.30;99.90;;;;;;4914783;29;20028;-74
2022/08/28 09:08:44;;;;;;;3.10;2.00;;;16.10;99.90;;;;;;4916545;29;20036;-75
2022/08/28 09:11:26;;;;;;;2.97;1.67;;;16.10;99.90;;;;;;4914673;29;20044;-74
2022/08/28 09:14:32;;;;;;;2.17;0.82;;;16.00;99.90;;;;;;4899656;29;20047;-75
2022/08/28 09:17:02;;;;;;;1.98;1.15;;;16.00;99.90;;;;;;4899382;29;20040;-77
2022/08/28 09:19:30;;;;;;;1.65;0.98;;;16.00;99.90;;;;;;4916623;29;20020;-74
2022/08/28 09:21:58;;;;;;;2.88;1.60;;;15.90;99.90;;;;;;4915024;29;20044;-74
2022/08/28 09:24:29;;;;;;;1.25;0.85;;;15.80;99.90;;;;;;4915657;29;20071;-75
2022/08/28 09:27:07;;;;;;;1.67;0.80;;;15.70;99.90;;;;;;4914557;29;20070;-72
2022/08/28 09:29:45;;;;;;;2.83;0.98;;;15.70;99.90;;;;;;4916608;29;20067;-73
2022/08/28 09:32:26;;;;;;;2.15;0.75;;;15.60;99.90;;;;;;4898379;29;20128;-74
2022/08/28 09:35:17;;;;;;;1.58;0.90;;;15.50;99.90;;;;;;4896505;29;20528;-75
2022/08/28 09:37:45;;;;;;;4.05;1.40;;;15.50;99.90;;;;;;4891673;29;20107;-75
2022/08/28 09:40:18;;;;;;;3.35;1.30;;;15.40;99.90;;;;;;4913494;29;20039;-74
2022/08/28 09:43:25;;;;;;;2.92;1.30;;;15.40;99.90;;;;;;4915503;29;20027;-75
2022/08/28 09:46:12;;;;;;;;;;;15.30;99.90;;;;;;4913647;29;20032;-73
2022/08/28 09:48:42;;;;;;;1.15;0.85;;;15.30;99.90;;;;;;4899696;29;19911;-74
2022/08/28 09:51:13;;;;;;;2.00;0.65;;;15.20;99.90;;;;;;4913959;29;20737;-75
2022/08/28 09:54:18;;;;;;;1.02;0.85;;;15.20;99.90;;;;;;4915482;29;20035;-74
2022/08/28 09:56:47;;;;;;;4.05;0.95;;;15.10;99.90;;;;;;4900726;29;20352;-75
2022/08/28 09:59:20;;;;;;;3.00;2.28;;;15.10;99.90;;;;;;4915045;29;20111;-75
2022/08/28 10:01:55;;;;;;;2.85;1.42;;;15.00;99.90;;;;;;4914009;29;20036;-74
2022/08/28 10:04:44;;;;;;;3.47;1.73;;;15.00;99.90;;;;;;4915291;29;20083;-75
2022/08/28 10:07:36;;;;;;;6.05;2.20;;;14.90;99.90;;;;;;4914979;29;20347;-75
2022/08/28 10:10:27;;;;;;;5.90;2.58;;;14.90;99.90;;;;;;4913334;29;20500;-73
2022/08/28 10:13:07;;;;;;;3.75;1.52;;;14.90;99.90;;;;;;4915813;29;20043;-76
2022/08/28 10:15:55;;;;;;;3.05;1.77;;;14.80;99.90;;;;;;4911882;29;20103;-73
2022/08/28 10:18:39;;;;;;;6.97;1.73;;;14.70;99.90;;;;;;4901745;29;20067;-73
2022/08/28 10:21:11;;;;;;;4.20;2.05;;;14.70;99.90;;;;;;4911814;29;20440;-75
2022/08/28 10:23:53;;;;;;;6.03;2.53;;;14.60;99.90;;;;;;4915203;29;20043;-74
2022/08/28 10:26:26;;;;;;;4.20;2.45;;;14.60;99.90;;;;;;4913193;29;20047;-80
2022/08/28 10:29:17;;;;;;;3.30;1.63;;;14.50;99.90;;;;;;4913188;29;20039;-74
2022/08/28 10:32:16;;;;;;;3.92;2.13;;;14.40;99.90;;;;;;4910279;29;20075;-75
2022/08/28 10:34:57;;;;;;;3.47;1.88;;;14.30;99.90;;;;;;4914929;29;20020;-75
2022/08/28 10:37:49;;;;;;;5.05;2.92;;;14.20;99.90;;;;;;4896200;29;20071;-75
2022/08/28 10:40:33;;;;;;;3.42;2.22;;;14.20;99.90;;;;;;4898423;29;20082;-76
2022/08/28 10:43:10;;;;;;;4.47;2.67;;;14.10;99.90;;;;;;4914701;29;20083;-76
2022/08/28 10:45:39;;;;;;;4.90;2.70;;;14.10;99.90;;;;;;4913512;29;20032;-76
2022/08/28 10:48:25;;;;;;;7.05;3.15;;;14.00;99.90;;;;;;4914924;29;20035;-75
2022/08/28 10:51:06;;;;;;;4.70;2.65;;;14.00;99.90;;;;;;4912766;29;20043;-76
2022/08/28 10:53:48;;;;;;;6.70;4.03;;;14.00;99.90;;;;;;4914764;29;20107;-76
2022/08/28 10:56:17;;;;;;;4.18;3.13;;;13.90;99.90;;;;;;4913153;29;20127;-76
2022/08/28 10:58:48;;;;;;;5.38;2.95;;;13.80;99.90;;;;;;4898075;29;20040;-75
2022/08/28 11:01:32;;;;;;;4.78;3.28;;;13.80;99.90;;;;;;4912843;29;20040;-74
2022/08/28 11:04:03;;;;;;;4.80;2.70;;;13.70;99.90;;;;;;4915485;29;20435;-75
2022/08/28 11:06:41;;;;;;;6.05;2.83;;;13.80;99.90;;;;;;4913589;29;20039;-76
2022/08/28 11:09:27;;;;;;;4.55;2.05;;;13.70;99.90;;;;;;4914731;29;20048;-76
2022/08/28 11:11:58;;;;;;;3.45;2.67;;;13.70;99.90;;;;;;4913417;29;20546;-74
2022/08/28 11:14:33;;;;;;;6.28;2.60;;;13.70;99.90;;;;;;4902078;29;20055;-75
2022/08/28 11:17:26;;;;;;;4.07;2.22;;;13.60;99.90;;;;;;4903182;29;20151;-76
2022/08/28 11:20:15;;;;;;;4.63;2.53;;;13.60;99.90;;;;;;4906030;29;20475;-76
2022/08/28 11:23:07;;;;;;;3.85;2.25;;;13.60;99.90;;;;;;4905236;29;20058;-78
2022/08/28 11:25:46;;;;;;;3.60;2.20;;;13.60;99.90;;;;;;4897298;29;20048;-76
2022/08/28 11:28:23;;;;;;;4.18;2.75;;;13.50;99.90;;;;;;4908233;29;20036;-77
2022/08/28 11:31:02;;;;;;;6.30;2.53;;;13.40;99.90;;;;;;4901101;29;20052;-78
2022/08/28 11:33:41;;;;;;;3.85;2.33;;;13.40;99.90;;;;;;4914606;29;20034;-78
2022/08/28 11:36:20;;;;;;;2.83;2.35;;;13.30;99.90;;;;;;4908904;29;20055;-78
2022/08/28 11:38:57;;;;;;;2.67;1.95;;;13.30;99.90;;;;;;4914714;29;20027;-78
2022/08/28 11:41:37;;;;;;;5.72;3.25;;;13.20;99.90;;;;;;4909184;29;20050;-78
2022/08/28 11:44:13;;;;;;;5.65;3.92;;;13.20;99.90;;;;;;4907794;29;20024;-78
2022/08/28 11:46:51;;;;;;;9.30;4.78;;;13.20;99.90;;;;;;4913049;29;20505;-78
2022/08/28 11:49:34;;;;;;;10.40;5.95;;;13.10;99.90;;;;;;4910276;29;20092;-77
2022/08/28 11:52:23;;;;;;;6.75;6.05;;;13.10;99.90;;;;;;4910861;29;20040;-73
2022/08/28 11:55:23;;;;;;;6.32;3.70;;;13.00;99.90;;;;;;4890386;29;20047;-75
2022/08/28 11:58:06;;;;;;;7.72;3.60;;;12.90;99.90;;;;;;4905552;29;20032;-77
2022/08/28 12:00:48;;;;;;;6.85;5.25;;;12.90;99.90;;;;;;4908338;29;20104;-76
2022/08/28 12:03:44;;;;;;;8.60;7.75;;;12.90;99.90;;;;;;4914961;29;20344;-77
2022/08/28 12:06:13;;;;;;;7.47;6.57;;;12.90;99.90;;;;;;4903194;29;20086;-77
2022/08/28 12:08:58;;;;;;;6.00;5.03;;;12.80;99.90;;;;;;4908862;29;20444;-76
2022/08/28 12:11:41;;;;;;;6.82;3.28;;;12.80;99.90;;;;;;4912071;29;20183;-76
2022/08/28 12:14:32;;;;;;;5.38;2.70;;;12.80;99.90;;;;;;4910581;29;20448;-77
2022/08/28 12:16:59;;;;;;;5.35;2.50;;;12.80;99.90;;;;;;4873314;29;20065;-76
2022/08/28 12:19:38;;;;;;;5.70;2.35;;;12.70;99.90;;;;;;4911261;29;20472;-76
2022/08/28 12:22:12;;;;;;;2.35;2.15;;;12.70;99.90;;;;;;4913313;29;20055;-77
2022/08/28 12:24:53;;;;;;;6.70;2.25;;;12.70;99.90;;;;;;4912043;29;20070;-76
2022/08/28 12:27:21;;;;;;;7.47;2.40;;;12.70;99.90;;;;;;4909742;29;20043;-78
2022/08/28 12:29:59;;;;;;;5.00;2.20;;;12.70;99.90;;;;;;4897858;29;20476;-77
2022/08/28 12:32:52;;;;;;;5.90;2.00;;;12.70;99.90;;;;;;4908668;29;20547;-77
2022/08/28 12:35:22;;;;;;;4.15;1.55;;;12.70;99.90;;;;;;4911754;29;20043;-80
2022/08/28 12:38:02;;;;;;;4.97;1.50;;;12.60;99.90;;;;;;4903165;29;20047;-76
2022/08/28 12:40:29;;;;;;;2.47;1.25;;;12.60;99.90;;;;;;4908833;29;20088;-75
2022/08/28 12:43:30;;;;;;;3.00;1.88;;;12.60;99.90;;;;;;4900492;29;20115;-76
2022/08/28 12:46:09;;;;;;;5.43;1.70;;;12.60;99.90;;;;;;4902816;29;20032;-77
2022/08/28 12:48:53;;;;;;;4.80;2.08;;;12.50;99.90;;;;;;4907961;29;20034;-77
2022/08/28 12:51:27;;;;;;;6.97;2.25;;;12.40;99.90;;;;;;4884543;29;20048;-75
2022/08/28 12:54:17;;;;;;;5.25;2.10;;;12.40;99.90;;;;;;4902673;29;20039;-75
2022/08/28 12:56:44;;;;;;;6.05;3.33;;;12.40;99.90;;;;;;4907570;29;20076;-77
2022/08/28 12:59:40;;;;;;;7.00;3.38;;;12.30;99.90;;;;;;4913129;29;20028;-75
2022/08/28 13:02:18;;;;;;;6.28;4.88;;;12.30;99.90;;;;;;4918409;29;20039;-76
2022/08/28 13:04:58;;;;;;;8.57;5.80;;;12.30;99.90;;;;;;4905689;29;20056;-77
2022/08/28 13:07:33;;;;;;;9.02;3.78;;;12.30;99.90;;;;;;4907245;29;20048;-75
2022/08/28 13:10:19;;;;;;;3.42;3.05;;;12.30;99.90;;;;;;4911257;29;20452;-77
2022/08/28 13:12:56;;;;;;;6.30;3.65;;;12.20;99.90;;;;;;4913542;29;20067;-78
2022/08/28 13:15:48;;;;;;;7.35;3.80;;;12.10;99.90;;;;;;4912066;29;20031;-79
2022/08/28 13:18:43;;;;;;;5.70;3.42;;;12.10;99.90;;;;;;4900879;29;20039;-80
2022/08/28 13:21:13;;;;;;;6.25;4.00;;;12.10;99.90;;;;;;4898197;29;20033;-78
2022/08/28 13:23:41;;;;;;;6.75;3.67;;;12.10;99.90;;;;;;4899368;29;20471;-76